createdAt,value
2023-03-13T00:01:13.328Z,13.47
2023-03-13T00:03:40.034Z,14.00
2023-03-13T00:06:07.395Z,15.40
2023-03-13T00:08:34.068Z,16.00
2023-03-13T00:11:06.628Z,13.80
2023-03-13T00:13:33.456Z,15.07
2023-03-13T00:16:06.021Z,15.30
2023-03-13T00:18:33.065Z,15.40
2023-03-13T00:21:05.097Z,21.93
2023-03-13T00:23:33.237Z,14.97
2023-03-13T00:26:05.373Z,13.30
2023-03-13T00:28:33.498Z,16.20
2023-03-13T00:31:13.346Z,17.70
2023-03-13T00:33:44.958Z,19.40
2023-03-13T00:36:17.238Z,16.07
2023-03-13T00:38:44.412Z,23.67
2023-03-13T00:41:12.330Z,20.70
2023-03-13T00:43:40.480Z,16.53
2023-03-13T00:46:08.355Z,17.07
2023-03-13T00:48:35.915Z,14.37
2023-03-13T00:51:03.678Z,18.23
2023-03-13T00:53:30.768Z,19.07
2023-03-13T00:56:00.037Z,18.27
2023-03-13T00:58:29.557Z,17.77
2023-03-13T01:00:56.340Z,13.00
2023-03-13T01:03:25.723Z,15.57
2023-03-13T01:05:57.083Z,16.23
2023-03-13T01:08:26.581Z,13.60
2023-03-13T01:11:11.027Z,16.60
2023-03-13T01:13:38.271Z,12.10
2023-03-13T01:16:16.929Z,10.10
2023-03-13T01:18:46.716Z,16.10
2023-03-13T01:21:14.864Z,14.53
2023-03-13T01:23:41.723Z,8.17
2023-03-13T01:26:10.173Z,8.77
2023-03-13T01:28:37.774Z,10.90
2023-03-13T01:31:17.404Z,13.73
2023-03-13T01:33:44.984Z,14.73
2023-03-13T01:36:12.381Z,16.07
2023-03-13T01:38:39.771Z,11.77
2023-03-13T01:41:08.142Z,8.67
2023-03-13T01:43:36.586Z,14.57
2023-03-13T01:46:18.477Z,10.07
2023-03-13T01:49:09.765Z,12.40
2023-03-13T01:51:58.250Z,13.17
2023-03-13T01:54:32.495Z,10.20
2023-03-13T01:57:11.974Z,11.40
2023-03-13T01:59:43.998Z,9.60
2023-03-13T02:02:11.690Z,14.40
2023-03-13T02:04:42.298Z,15.70
2023-03-13T02:07:18.364Z,15.00
2023-03-13T02:09:51.017Z,8.33
2023-03-13T02:12:34.127Z,17.03
2023-03-13T02:15:05.632Z,7.67
2023-03-13T02:17:35.384Z,14.23
2023-03-13T02:20:03.956Z,9.80
2023-03-13T02:22:43.111Z,17.40
2023-03-13T02:25:25.200Z,18.60
2023-03-13T02:28:03.260Z,14.03
2023-03-13T02:30:33.354Z,13.90
2023-03-13T02:33:01.326Z,15.07
2023-03-13T02:35:29.193Z,21.67
2023-03-13T02:38:02.808Z,10.40
2023-03-13T02:40:38.706Z,16.43
2023-03-13T02:43:10.740Z,13.70
2023-03-13T02:45:38.006Z,13.37
2023-03-13T02:48:04.768Z,16.97
2023-03-13T02:50:31.396Z,13.30
2023-03-13T02:53:04.961Z,20.33
2023-03-13T02:55:39.400Z,13.53
2023-03-13T02:58:06.357Z,18.80
2023-03-13T03:00:35.930Z,17.53
2023-03-13T03:03:02.621Z,12.67
2023-03-13T03:05:29.342Z,11.83
2023-03-13T03:07:57.680Z,15.33
2023-03-13T03:10:25.088Z,10.10
2023-03-13T03:12:52.148Z,12.87
2023-03-13T03:15:18.894Z,9.67
2023-03-13T03:17:48.069Z,13.20
2023-03-13T03:20:14.842Z,11.77
2023-03-13T03:22:43.193Z,12.33
2023-03-13T03:25:10.124Z,11.07
2023-03-13T03:27:37.202Z,9.37
2023-03-13T03:30:07.334Z,10.83
2023-03-13T03:32:35.840Z,18.07
2023-03-13T03:35:02.698Z,17.27
2023-03-13T03:37:29.378Z,7.47
2023-03-13T03:39:56.799Z,10.90
2023-03-13T03:42:23.649Z,8.37
2023-03-13T03:44:50.727Z,11.77
2023-03-13T03:47:18.973Z,13.50
2023-03-13T03:49:47.599Z,7.83
2023-03-13T03:52:15.671Z,17.43
2023-03-13T03:54:43.757Z,14.87
2023-03-13T03:57:10.611Z,9.03
2023-03-13T03:59:38.264Z,13.23
2023-03-13T04:02:09.358Z,9.10
2023-03-13T04:04:36.966Z,8.40
2023-03-13T04:07:08.054Z,7.93
2023-03-13T04:09:35.605Z,12.73
2023-03-13T04:12:04.075Z,6.33
2023-03-13T04:14:34.852Z,8.30
2023-03-13T04:17:04.761Z,10.80
2023-03-13T04:19:31.412Z,14.70
2023-03-13T04:21:58.420Z,4.20
2023-03-13T04:24:25.472Z,5.70
2023-03-13T04:26:52.086Z,7.37
2023-03-13T04:29:19.935Z,8.90
2023-03-13T04:32:05.520Z,5.97
2023-03-13T04:34:51.062Z,3.37
2023-03-13T04:37:28.449Z,8.50
2023-03-13T04:40:21.369Z,5.17
2023-03-13T04:43:06.826Z,5.67
2023-03-13T04:45:58.958Z,3.30
2023-03-13T04:49:00.892Z,2.50
2023-03-13T04:52:06.606Z,3.67
2023-03-13T04:54:52.131Z,3.63
2023-03-13T04:57:44.916Z,6.97
2023-03-13T05:00:36.734Z,5.57
2023-03-13T05:03:25.838Z,4.60
2023-03-13T05:05:58.303Z,2.27
2023-03-13T05:08:54.526Z,1.70
2023-03-13T05:11:40.297Z,4.00
2023-03-13T05:14:21.898Z,1.73
2023-03-13T05:17:12.517Z,2.00
2023-03-13T05:19:56.640Z,2.90
2023-03-13T05:22:34.710Z,0.73
2023-03-13T05:25:16.029Z,4.53
2023-03-13T05:27:57.018Z,3.40
2023-03-13T05:30:33.091Z,3.20
2023-03-13T05:33:08.910Z,2.53
2023-03-13T05:35:55.863Z,1.10
2023-03-13T05:38:41.561Z,2.17
2023-03-13T05:41:21.654Z,2.70
2023-03-13T05:44:00.333Z,1.93
2023-03-13T05:46:45.645Z,2.40
2023-03-13T05:49:35.129Z,1.27
2023-03-13T05:52:10.798Z,0.80
2023-03-13T05:54:47.677Z,2.60
2023-03-13T05:57:32.918Z,2.10
2023-03-13T06:00:09.336Z,3.37
2023-03-13T06:03:04.798Z,2.47
2023-03-13T06:05:36.374Z,0.73
2023-03-13T06:08:07.337Z,1.50
2023-03-13T06:10:34.072Z,0.90
2023-03-13T06:13:13.731Z,3.70
2023-03-13T06:15:56.589Z,1.93
2023-03-13T06:18:38.323Z,2.37
2023-03-13T06:21:05.461Z,1.73
2023-03-13T06:23:33.077Z,1.33
2023-03-13T06:26:00.603Z,0.80
2023-03-13T06:28:27.659Z,3.90
2023-03-13T06:30:55.273Z,2.13
2023-03-13T06:33:22.650Z,3.43
2023-03-13T06:35:56.797Z,1.57
2023-03-13T06:38:26.931Z,3.97
2023-03-13T06:40:54.360Z,0.60
2023-03-13T06:43:21.914Z,0.50
2023-03-13T06:45:48.609Z,1.43
2023-03-13T06:48:15.655Z,1.47
2023-03-13T06:50:43.229Z,2.33
2023-03-13T06:53:16.898Z,7.80
2023-03-13T06:55:44.154Z,8.27
2023-03-13T06:58:21.807Z,1.73
2023-03-13T07:00:56.096Z,1.57
2023-03-13T07:03:22.806Z,1.27
2023-03-13T07:05:55.062Z,1.37
2023-03-13T07:08:21.706Z,1.20
2023-03-13T07:10:52.187Z,1.90
2023-03-13T07:13:22.553Z,3.47
2023-03-13T07:15:49.717Z,1.50
2023-03-13T07:18:16.333Z,1.70
2023-03-13T07:20:43.542Z,2.87
2023-03-13T07:23:10.719Z,3.20
2023-03-13T07:25:37.833Z,1.20
2023-03-13T07:28:04.945Z,1.43
2023-03-13T07:30:31.567Z,3.33
2023-03-13T07:32:58.634Z,2.20
2023-03-13T07:35:25.785Z,1.07
2023-03-13T07:37:52.967Z,1.27
2023-03-13T07:40:20.113Z,1.00
2023-03-13T07:42:46.690Z,1.30
2023-03-13T07:45:13.482Z,3.03
2023-03-13T07:47:40.561Z,1.20
2023-03-13T07:50:08.403Z,2.13
2023-03-13T07:52:35.534Z,2.77
2023-03-13T07:55:02.597Z,1.63
2023-03-13T07:57:29.214Z,1.93
2023-03-13T07:59:55.831Z,1.43
2023-03-13T08:02:22.984Z,2.63
2023-03-13T08:04:53.032Z,1.37
2023-03-13T08:07:19.868Z,2.33
2023-03-13T08:09:46.497Z,1.90
2023-03-13T08:12:13.118Z,0.70
2023-03-13T08:14:40.146Z,1.70
2023-03-13T08:17:07.334Z,2.93
2023-03-13T08:19:34.442Z,1.27
2023-03-13T08:22:01.473Z,1.93
2023-03-13T08:24:28.097Z,1.07
2023-03-13T08:26:55.122Z,1.53
2023-03-13T08:29:21.737Z,1.87
2023-03-13T08:31:51.384Z,1.90
2023-03-13T08:34:18.933Z,2.10
2023-03-13T08:36:46.225Z,1.10
2023-03-13T08:39:17.886Z,2.23
2023-03-13T08:41:44.948Z,1.50
2023-03-13T08:44:14.156Z,3.40
2023-03-13T08:46:40.916Z,3.03
2023-03-13T08:49:08.305Z,1.87
2023-03-13T08:51:35.407Z,3.87
2023-03-13T08:54:03.416Z,2.80
2023-03-13T08:56:31.443Z,1.43
2023-03-13T08:59:00.782Z,1.93
2023-03-13T09:01:30.873Z,2.93
2023-03-13T09:03:58.384Z,1.40
2023-03-13T09:06:25.773Z,2.70
2023-03-13T09:08:52.993Z,2.93
2023-03-13T09:11:21.574Z,5.00
2023-03-13T09:13:50.156Z,2.77
2023-03-13T09:16:22.394Z,2.27
2023-03-13T09:18:50.309Z,3.93
2023-03-13T09:21:21.937Z,2.97
2023-03-13T09:23:49.152Z,3.67
2023-03-13T09:26:17.156Z,3.43
2023-03-13T09:28:43.825Z,1.73
2023-03-13T09:31:25.214Z,3.13
2023-03-13T09:33:52.391Z,3.83
2023-03-13T09:36:22.150Z,4.30
2023-03-13T09:38:50.503Z,2.87
2023-03-13T09:41:17.113Z,3.20
2023-03-13T09:44:08.601Z,3.10
2023-03-13T09:46:57.275Z,4.00
2023-03-13T09:49:44.061Z,3.87
2023-03-13T09:52:13.778Z,3.03
2023-03-13T09:54:52.015Z,4.87
2023-03-13T09:57:35.433Z,2.93
2023-03-13T10:00:14.741Z,4.30
2023-03-13T10:02:47.136Z,4.13
2023-03-13T10:05:26.224Z,4.50
2023-03-13T10:08:12.308Z,4.37
2023-03-13T10:11:09.691Z,8.37
2023-03-13T10:14:01.397Z,6.17
2023-03-13T10:16:31.276Z,6.30
2023-03-13T10:18:59.722Z,5.97
2023-03-13T10:21:33.655Z,4.90
2023-03-13T10:24:14.299Z,4.50
2023-03-13T10:26:40.892Z,5.37
2023-03-13T10:29:28.529Z,3.20
2023-03-13T10:32:07.022Z,4.17
2023-03-13T10:35:00.827Z,4.80
2023-03-13T10:37:33.216Z,2.73
2023-03-13T10:40:23.084Z,3.13
2023-03-13T10:42:52.528Z,3.50
2023-03-13T10:45:24.961Z,3.27
2023-03-13T10:47:56.891Z,4.57
2023-03-13T10:50:25.569Z,3.53
2023-03-13T10:52:52.858Z,3.40
2023-03-13T10:55:24.764Z,5.87
2023-03-13T10:58:02.775Z,2.77
2023-03-13T11:00:37.465Z,4.03
2023-03-13T11:03:18.205Z,2.47
2023-03-13T11:05:55.062Z,2.47
2023-03-13T11:08:27.662Z,3.07
2023-03-13T11:11:06.009Z,4.20
2023-03-13T11:13:43.566Z,3.80
2023-03-13T11:16:40.551Z,6.90
2023-03-13T11:19:13.358Z,4.00
2023-03-13T11:22:10.130Z,2.40
2023-03-13T11:24:37.366Z,2.50
2023-03-13T11:27:32.399Z,3.13
2023-03-13T11:30:23.264Z,6.40
2023-03-13T11:32:55.079Z,1.97
2023-03-13T11:35:43.421Z,2.97
2023-03-13T11:38:32.721Z,4.20
2023-03-13T11:41:32.781Z,1.57
2023-03-13T11:44:18.237Z,3.57
2023-03-13T11:47:05.160Z,3.97
2023-03-13T11:49:49.591Z,1.90
2023-03-13T11:52:52.620Z,3.43
2023-03-13T11:55:43.129Z,2.93
2023-03-13T11:58:25.858Z,3.00
2023-03-13T12:01:01.397Z,1.53
2023-03-13T12:03:33.906Z,2.20
2023-03-13T12:06:02.383Z,5.87
2023-03-13T12:08:50.942Z,3.70
2023-03-13T12:11:29.988Z,2.20
2023-03-13T12:14:06.536Z,2.47
2023-03-13T12:16:56.903Z,2.43
2023-03-13T12:19:37.356Z,1.37
2023-03-13T12:22:16.530Z,1.30
2023-03-13T12:24:58.168Z,1.27
2023-03-13T12:27:32.750Z,1.17
2023-03-13T12:30:07.299Z,0.67
2023-03-13T12:33:04.898Z,1.33
2023-03-13T12:35:33.687Z,0.70
2023-03-13T12:38:24.690Z,1.33
2023-03-13T12:41:12.310Z,1.13
2023-03-13T12:43:44.134Z,1.37
2023-03-13T12:46:33.633Z,1.00
2023-03-13T12:49:09.130Z,4.70
2023-03-13T12:52:02.362Z,1.40
2023-03-13T12:54:47.227Z,3.20
2023-03-13T12:57:41.997Z,1.77
2023-03-13T13:00:20.158Z,1.80
2023-03-13T13:02:47.420Z,1.03
2023-03-13T13:05:21.866Z,2.40
2023-03-13T13:07:56.446Z,1.10
2023-03-13T13:10:26.183Z,2.57
2023-03-13T13:13:14.849Z,2.53
2023-03-13T13:15:58.917Z,1.57
2023-03-13T13:18:28.553Z,4.27
2023-03-13T13:21:07.136Z,1.17
2023-03-13T13:23:34.218Z,1.17
2023-03-13T13:26:36.708Z,1.90
2023-03-13T13:29:12.507Z,0.80
2023-03-13T13:31:56.925Z,0.73
2023-03-13T13:34:52.674Z,2.63
2023-03-13T13:37:19.686Z,5.30
2023-03-13T13:39:49.924Z,2.63
2023-03-13T13:42:31.672Z,2.20
2023-03-13T13:45:14.777Z,3.83
2023-03-13T13:47:47.984Z,2.30
2023-03-13T13:50:26.760Z,6.10
2023-03-13T13:52:54.218Z,1.50
2023-03-13T13:55:29.783Z,1.30
2023-03-13T13:58:06.257Z,0.80
2023-03-13T14:00:43.072Z,0.60
2023-03-13T14:03:28.115Z,0.50
2023-03-13T14:06:17.371Z,0.70
2023-03-13T14:08:46.894Z,0.77
2023-03-13T14:11:38.705Z,1.30
2023-03-13T14:14:20.121Z,0.80
2023-03-13T14:16:52.252Z,1.17
2023-03-13T14:19:50.092Z,0.73
2023-03-13T14:22:17.196Z,2.00
2023-03-13T14:24:57.381Z,0.80
2023-03-13T14:27:24.029Z,1.33
2023-03-13T14:30:05.534Z,2.70
2023-03-13T14:32:32.768Z,0.70
2023-03-13T14:34:59.902Z,0.87
2023-03-13T14:37:40.841Z,0.87
2023-03-13T14:40:10.237Z,0.40
2023-03-13T14:42:47.156Z,1.00
2023-03-13T14:45:16.124Z,0.90
2023-03-13T14:47:43.248Z,1.57
2023-03-13T14:50:15.170Z,2.20
2023-03-13T14:52:49.601Z,1.17
2023-03-13T14:55:40.270Z,0.70
2023-03-13T14:58:25.105Z,1.17
2023-03-13T15:00:52.163Z,1.37
2023-03-13T15:03:21.352Z,0.50
2023-03-13T15:06:09.760Z,0.90
2023-03-13T15:08:42.203Z,2.07
2023-03-13T15:11:20.188Z,2.47
2023-03-13T15:13:47.525Z,0.93
2023-03-13T15:16:21.497Z,0.90
2023-03-13T15:18:49.668Z,0.80
2023-03-13T15:21:19.918Z,2.37
2023-03-13T15:23:51.263Z,2.57
2023-03-13T15:26:18.209Z,1.20
2023-03-13T15:28:45.695Z,4.80
2023-03-13T15:31:13.443Z,0.97
2023-03-13T15:33:40.787Z,1.33
2023-03-13T15:36:08.224Z,0.70
2023-03-13T15:38:35.668Z,2.50
2023-03-13T15:41:02.750Z,1.30
2023-03-13T15:43:29.781Z,0.80
2023-03-13T15:45:56.959Z,0.50
2023-03-13T15:48:27.566Z,3.40
2023-03-13T15:50:58.375Z,1.73
2023-03-13T15:53:30.053Z,0.70
2023-03-13T15:56:01.405Z,1.07
2023-03-13T15:58:29.655Z,3.47
2023-03-13T16:00:57.680Z,1.53
2023-03-13T16:03:26.632Z,0.63
2023-03-13T16:05:54.564Z,0.57
2023-03-13T16:08:34.674Z,2.30
2023-03-13T16:11:02.755Z,0.77
2023-03-13T16:13:31.294Z,1.53
2023-03-13T16:15:58.529Z,0.67
2023-03-13T16:18:25.480Z,2.47
2023-03-13T16:20:52.770Z,1.93
2023-03-13T16:23:19.857Z,0.83
2023-03-13T16:25:48.346Z,2.40
2023-03-13T16:28:15.730Z,0.70
2023-03-13T16:30:47.706Z,0.70
2023-03-13T16:33:15.235Z,2.70
2023-03-13T16:35:42.517Z,7.80
2023-03-13T16:38:11.533Z,2.63
2023-03-13T16:40:38.266Z,2.13
2023-03-13T16:43:05.325Z,2.17
2023-03-13T16:45:32.438Z,0.70
2023-03-13T16:47:59.505Z,4.87
2023-03-13T16:50:37.623Z,0.97
2023-03-13T16:53:04.567Z,0.97
2023-03-13T16:55:36.165Z,1.20
2023-03-13T16:58:04.045Z,1.23
2023-03-13T17:00:31.957Z,3.37
2023-03-13T17:02:59.368Z,1.40
2023-03-13T17:05:27.052Z,0.90
2023-03-13T17:07:54.375Z,1.00
2023-03-13T17:10:32.705Z,1.43
2023-03-13T17:13:00.420Z,3.63
2023-03-13T17:15:28.621Z,1.77
2023-03-13T17:17:56.019Z,1.27
2023-03-13T17:20:25.512Z,1.67
2023-03-13T17:22:52.622Z,1.40
2023-03-13T17:25:19.789Z,1.30
2023-03-13T17:27:48.403Z,1.23
2023-03-13T17:30:26.390Z,1.57
2023-03-13T17:32:53.785Z,2.03
2023-03-13T17:35:21.698Z,1.83
2023-03-13T17:37:48.977Z,1.77
2023-03-13T17:40:16.325Z,2.10
2023-03-13T17:42:43.343Z,2.07
2023-03-13T17:45:11.174Z,1.80
2023-03-13T17:47:38.367Z,2.63
2023-03-13T17:50:13.762Z,2.93
2023-03-13T17:52:40.825Z,5.33
2023-03-13T17:55:08.354Z,2.17
2023-03-13T17:57:35.389Z,2.57
2023-03-13T18:00:02.433Z,1.30
2023-03-13T18:02:39.108Z,4.70
2023-03-13T18:05:06.307Z,5.70
2023-03-13T18:07:33.348Z,1.83
2023-03-13T18:10:00.396Z,3.03
2023-03-13T18:12:27.436Z,1.53
2023-03-13T18:14:54.469Z,2.97
2023-03-13T18:17:23.240Z,1.10
2023-03-13T18:19:50.768Z,3.17
2023-03-13T18:22:21.441Z,2.37
2023-03-13T18:24:48.508Z,1.17
2023-03-13T18:27:20.988Z,1.10
2023-03-13T18:29:49.133Z,4.30
2023-03-13T18:32:17.340Z,1.13
2023-03-13T18:34:44.495Z,4.07
2023-03-13T18:37:32.998Z,1.47
2023-03-13T18:40:00.181Z,1.00
2023-03-13T18:42:27.613Z,5.10
2023-03-13T18:44:55.413Z,1.33
2023-03-13T18:47:24.957Z,1.20
2023-03-13T18:49:51.676Z,2.53
2023-03-13T18:52:18.791Z,3.93
2023-03-13T18:54:45.516Z,3.53
2023-03-13T18:57:14.702Z,1.67
2023-03-13T18:59:41.774Z,2.17
2023-03-13T19:02:17.108Z,2.90
2023-03-13T19:04:44.873Z,1.17
2023-03-13T19:07:14.423Z,3.93
2023-03-13T19:09:44.097Z,3.07
2023-03-13T19:12:12.553Z,1.53
2023-03-13T19:14:39.726Z,3.43
2023-03-13T19:17:28.875Z,3.93
2023-03-13T19:19:58.653Z,4.07
2023-03-13T19:22:26.244Z,1.63
2023-03-13T19:24:52.906Z,1.53
2023-03-13T19:27:19.953Z,4.63
2023-03-13T19:29:46.687Z,3.60
2023-03-13T19:32:18.295Z,3.83
2023-03-13T19:34:45.555Z,1.50
2023-03-13T19:37:14.098Z,3.17
2023-03-13T19:39:41.720Z,3.07
2023-03-13T19:42:09.040Z,2.73
2023-03-13T19:44:36.297Z,2.03
2023-03-13T19:47:04.521Z,2.10
2023-03-13T19:49:31.323Z,2.67
2023-03-13T19:51:58.590Z,2.27
2023-03-13T19:54:25.661Z,1.93
2023-03-13T19:56:53.462Z,4.97
2023-03-13T19:59:26.658Z,1.30
2023-03-13T20:01:55.601Z,1.20
2023-03-13T20:04:22.951Z,2.38
2023-03-13T20:06:50.021Z,1.23
2023-03-13T20:09:17.762Z,1.90
2023-03-13T20:11:44.910Z,3.27
2023-03-13T20:14:12.139Z,2.73
2023-03-13T20:16:38.972Z,2.10
2023-03-13T20:19:06.225Z,1.07
2023-03-13T20:21:35.800Z,1.67
2023-03-13T20:24:03.267Z,3.70
2023-03-13T20:26:30.388Z,2.63
2023-03-13T20:28:57.847Z,4.90
2023-03-13T20:31:27.878Z,1.30
2023-03-13T20:33:55.814Z,2.97
2023-03-13T20:36:23.727Z,1.47
2023-03-13T20:38:50.795Z,4.87
2023-03-13T20:41:20.974Z,1.70
2023-03-13T20:43:48.024Z,5.70
2023-03-13T20:46:15.084Z,1.57
2023-03-13T20:48:42.371Z,2.30
2023-03-13T20:51:09.611Z,2.23
2023-03-13T20:53:40.411Z,2.67
2023-03-13T20:56:08.277Z,1.87
2023-03-13T20:58:35.840Z,4.90
2023-03-13T21:01:03.969Z,2.23
2023-03-13T21:03:35.783Z,6.53
2023-03-13T21:06:13.572Z,3.87
2023-03-13T21:08:40.835Z,3.50
2023-03-13T21:11:20.133Z,1.10
2023-03-13T21:13:47.605Z,1.93
2023-03-13T21:16:14.786Z,3.33
2023-03-13T21:18:41.949Z,3.03
2023-03-13T21:21:13.135Z,3.83
2023-03-13T21:23:40.166Z,2.57
2023-03-13T21:26:07.656Z,4.27
2023-03-13T21:28:34.493Z,3.13
2023-03-13T21:31:11.308Z,4.00
2023-03-13T21:33:38.706Z,2.10
2023-03-13T21:36:06.049Z,2.83
2023-03-13T21:38:33.335Z,5.03
2023-03-13T21:41:00.543Z,3.97
2023-03-13T21:43:30.745Z,1.87
2023-03-13T21:45:59.241Z,1.80
2023-03-13T21:48:26.617Z,4.03
2023-03-13T21:50:53.720Z,3.50
2023-03-13T21:53:20.853Z,3.37
2023-03-13T21:55:51.741Z,2.07
2023-03-13T21:58:18.675Z,3.17
2023-03-13T22:00:45.794Z,2.77
2023-03-13T22:03:12.560Z,3.13
2023-03-13T22:05:43.412Z,2.17
2023-03-13T22:08:10.613Z,4.87
2023-03-13T22:10:37.967Z,5.03
2023-03-13T22:13:05.912Z,2.77
2023-03-13T22:15:33.205Z,1.87
2023-03-13T22:18:00.261Z,2.23
2023-03-13T22:20:27.348Z,2.93
2023-03-13T22:22:54.429Z,6.80
2023-03-13T22:25:21.339Z,3.20
2023-03-13T22:27:48.401Z,4.77
2023-03-13T22:30:15.244Z,1.53
2023-03-13T22:32:42.396Z,2.63
2023-03-13T22:35:09.633Z,3.40
2023-03-13T22:37:36.735Z,4.67
2023-03-13T22:40:04.117Z,2.17
2023-03-13T22:42:31.148Z,3.53
2023-03-13T22:44:57.932Z,4.23
2023-03-13T22:47:25.894Z,1.50
2023-03-13T22:49:53.612Z,3.70
2023-03-13T22:52:21.277Z,3.97
2023-03-13T22:54:48.389Z,5.50
2023-03-13T22:57:15.418Z,2.47
2023-03-13T22:59:42.025Z,2.33
2023-03-13T23:02:09.124Z,2.87
2023-03-13T23:04:36.501Z,3.37
2023-03-13T23:07:03.574Z,2.60
2023-03-13T23:09:30.621Z,3.43
2023-03-13T23:11:57.682Z,2.13
2023-03-13T23:14:28.873Z,1.53
2023-03-13T23:16:58.206Z,2.83
2023-03-13T23:19:25.260Z,1.27
2023-03-13T23:21:52.334Z,6.07
2023-03-13T23:24:19.389Z,1.80
2023-03-13T23:26:46.038Z,3.73
2023-03-13T23:29:14.074Z,1.37
2023-03-13T23:31:40.694Z,3.57
2023-03-13T23:34:07.733Z,1.67
2023-03-13T23:36:34.787Z,4.73
2023-03-13T23:39:02.859Z,2.57
2023-03-13T23:41:29.463Z,3.93
2023-03-13T23:43:56.548Z,2.03
2023-03-13T23:46:26.807Z,2.80
2023-03-13T23:48:54.460Z,1.67
2023-03-13T23:51:21.492Z,2.80
2023-03-13T23:53:48.591Z,1.73
2023-03-13T23:56:15.345Z,3.80
2023-03-13T23:58:42.497Z,4.30
